sensor_id;sensor_type;location;lat;lon;timestamp;pressure;altitude;pressure_sealevel;temperature;humidity
24788;BME280;12883;52.662;5.196;2023-11-21T00:00:48;99396.78;;;9.84;100.00
24788;BME280;12883;52.662;5.196;2023-11-21T00:03:14;99402.44;;;9.88;100.00
24788;BME280;12883;52.662;5.196;2023-11-21T00:05:40;99407.72;;;9.88;100.00
24788;BME280;12883;52.662;5.196;2023-11-21T00:08:07;99408.75;;;9.87;100.00
24788;BME280;12883;52.662;5.196;2023-11-21T00:10:32;99399.22;;;9.86;100.00
24788;BME280;12883;52.662;5.196;2023-11-21T00:12:57;99401.63;;;9.87;100.00
24788;BME280;12883;52.662;5.196;2023-11-21T00:15:23;99418.66;;;9.91;100.00
24788;BME280;12883;52.662;5.196;2023-11-21T00:17:48;99414.41;;;9.90;100.00
24788;BME280;12883;52.662;5.196;2023-11-21T00:20:14;99408.31;;;9.90;100.00
24788;BME280;12883;52.662;5.196;2023-11-21T00:22:39;99414.66;;;9.89;100.00
24788;BME280;12883;52.662;5.196;2023-11-21T00:25:06;99412.00;;;9.89;100.00
24788;BME280;12883;52.662;5.196;2023-11-21T00:27:34;99419.38;;;9.87;100.00
24788;BME280;12883;52.662;5.196;2023-11-21T00:30:00;99419.00;;;9.83;100.00
24788;BME280;12883;52.662;5.196;2023-11-21T00:32:25;99418.78;;;9.85;100.00
24788;BME280;12883;52.662;5.196;2023-11-21T00:34:50;99427.31;;;9.87;100.00
24788;BME280;12883;52.662;5.196;2023-11-21T00:37:16;99427.31;;;9.87;100.00
24788;BME280;12883;52.662;5.196;2023-11-21T00:39:41;99346.97;;;9.41;100.00
24788;BME280;12883;52.662;5.196;2023-11-21T00:42:07;99417.88;;;9.91;100.00
24788;BME280;12883;52.662;5.196;2023-11-21T00:44:33;99407.72;;;9.88;100.00
24788;BME280;12883;52.662;5.196;2023-11-21T00:46:59;99418.22;;;9.94;100.00
24788;BME280;12883;52.662;5.196;2023-11-21T00:49:25;99415.38;;;9.96;100.00
24788;BME280;12883;52.662;5.196;2023-11-21T00:51:50;99397.47;;;9.80;100.00
24788;BME280;12883;52.662;5.196;2023-11-21T00:54:15;99417.19;;;9.95;100.00
24788;BME280;12883;52.662;5.196;2023-11-21T00:56:42;99422.72;;;9.94;100.00
24788;BME280;12883;52.662;5.196;2023-11-21T00:59:07;99412.13;;;9.94;100.00
24788;BME280;12883;52.662;5.196;2023-11-21T01:01:33;99411.66;;;9.97;100.00
24788;BME280;12883;52.662;5.196;2023-11-21T01:03:58;99413.28;;;9.98;100.00
24788;BME280;12883;52.662;5.196;2023-11-21T01:06:23;99415.72;;;9.99;100.00
24788;BME280;12883;52.662;5.196;2023-11-21T01:08:49;99422.28;;;9.97;100.00
24788;BME280;12883;52.662;5.196;2023-11-21T01:11:14;99420.66;;;9.96;100.00
24788;BME280;12883;52.662;5.196;2023-11-21T01:13:40;99413.28;;;9.98;100.00
24788;BME280;12883;52.662;5.196;2023-11-21T01:16:06;99427.56;;;9.97;100.00
24788;BME280;12883;52.662;5.196;2023-11-21T01:18:32;99434.47;;;9.98;100.00
24788;BME280;12883;52.662;5.196;2023-11-21T01:20:58;99424.44;;;10.00;100.00
24788;BME280;12883;52.662;5.196;2023-11-21T01:23:25;99439.88;;;9.91;100.00
24788;BME280;12883;52.662;5.196;2023-11-21T01:25:52;99440.69;;;9.92;100.00
24788;BME280;12883;52.662;5.196;2023-11-21T01:28:17;99431.34;;;9.89;100.00
24788;BME280;12883;52.662;5.196;2023-11-21T01:30:43;99452.09;;;9.92;100.00
24788;BME280;12883;52.662;5.196;2023-11-21T01:33:09;99438.59;;;9.94;100.00
24788;BME280;12883;52.662;5.196;2023-11-21T01:35:35;99443.91;;;9.94;100.00
24788;BME280;12883;52.662;5.196;2023-11-21T01:38:01;99450.38;;;9.98;100.00
24788;BME280;12883;52.662;5.196;2023-11-21T01:40:26;99454.06;;;9.97;100.00
24788;BME280;12883;52.662;5.196;2023-11-21T01:42:53;99449.81;;;9.96;100.00
24788;BME280;12883;52.662;5.196;2023-11-21T01:45:18;99459.72;;;10.00;100.00
24788;BME280;12883;52.662;5.196;2023-11-21T01:47:45;99445.84;;;9.87;100.00
24788;BME280;12883;52.662;5.196;2023-11-21T01:50:14;99458.50;;;10.03;100.00
24788;BME280;12883;52.662;5.196;2023-11-21T01:52:42;99420.63;;;9.84;100.00
24788;BME280;12883;52.662;5.196;2023-11-21T01:55:09;99448.88;;;10.02;100.00
24788;BME280;12883;52.662;5.196;2023-11-21T01:57:35;99445.13;;;10.09;100.00
24788;BME280;12883;52.662;5.196;2023-11-21T02:00:03;99415.22;;;9.91;100.00
24788;BME280;12883;52.662;5.196;2023-11-21T02:02:44;99460.91;;;10.16;100.00
24788;BME280;12883;52.662;5.196;2023-11-21T02:05:19;99459.41;;;10.20;100.00
24788;BME280;12883;52.662;5.196;2023-11-21T02:07:47;99451.47;;;10.20;100.00
24788;BME280;12883;52.662;5.196;2023-11-21T02:10:17;99448.94;;;10.25;100.00
24788;BME280;12883;52.662;5.196;2023-11-21T02:12:48;99450.78;;;10.24;100.00
24788;BME280;12883;52.662;5.196;2023-11-21T02:15:15;99436.25;;;10.15;100.00
24788;BME280;12883;52.662;5.196;2023-11-21T02:17:45;99453.88;;;10.33;100.00
24788;BME280;12883;52.662;5.196;2023-11-21T02:20:11;99454.94;;;10.32;100.00
24788;BME280;12883;52.662;5.196;2023-11-21T02:22:41;99450.19;;;10.34;100.00
24788;BME280;12883;52.662;5.196;2023-11-21T02:25:07;99435.31;;;10.44;100.00
24788;BME280;12883;52.662;5.196;2023-11-21T02:27:33;99439.22;;;10.42;100.00
24788;BME280;12883;52.662;5.196;2023-11-21T02:29:58;99436.59;;;10.42;100.00
24788;BME280;12883;52.662;5.196;2023-11-21T02:32:25;99430.25;;;10.31;100.00
24788;BME280;12883;52.662;5.196;2023-11-21T02:34:51;99437.19;;;10.44;100.00
24788;BME280;12883;52.662;5.196;2023-11-21T02:37:17;99428.06;;;10.40;100.00
24788;BME280;12883;52.662;5.196;2023-11-21T02:39:42;99432.09;;;10.31;100.00
24788;BME280;12883;52.662;5.196;2023-11-21T02:42:08;99429.22;;;10.32;100.00
24788;BME280;12883;52.662;5.196;2023-11-21T02:44:33;99445.94;;;10.21;100.00
24788;BME280;12883;52.662;5.196;2023-11-21T02:46:59;99436.13;;;10.22;100.00
24788;BME280;12883;52.662;5.196;2023-11-21T02:49:25;99443.84;;;10.23;100.00
24788;BME280;12883;52.662;5.196;2023-11-21T02:51:53;99434.06;;;10.24;100.00
24788;BME280;12883;52.662;5.196;2023-11-21T02:54:20;99443.06;;;10.23;100.00
24788;BME280;12883;52.662;5.196;2023-11-21T02:56:47;99431.63;;;10.22;100.00
24788;BME280;12883;52.662;5.196;2023-11-21T02:59:12;99448.81;;;10.20;100.00
24788;BME280;12883;52.662;5.196;2023-11-21T03:01:37;99444.56;;;10.19;100.00
24788;BME280;12883;52.662;5.196;2023-11-21T03:04:03;99435.44;;;10.15;100.00
24788;BME280;12883;52.662;5.196;2023-11-21T03:06:28;99431.75;;;10.16;100.00
24788;BME280;12883;52.662;5.196;2023-11-21T03:08:54;99422.38;;;10.02;100.00
24788;BME280;12883;52.662;5.196;2023-11-21T03:11:19;99447.28;;;10.12;100.00
24788;BME280;12883;52.662;5.196;2023-11-21T03:13:44;99431.75;;;10.16;100.00
24788;BME280;12883;52.662;5.196;2023-11-21T03:16:11;99431.38;;;10.12;100.00
24788;BME280;12883;52.662;5.196;2023-11-21T03:18:37;99432.91;;;10.20;100.00
24788;BME280;12883;52.662;5.196;2023-11-21T03:21:04;99432.09;;;10.19;100.00
24788;BME280;12883;52.662;5.196;2023-11-21T03:23:29;99431.28;;;10.19;100.00
24788;BME280;12883;52.662;5.196;2023-11-21T03:25:55;99413.44;;;10.03;100.00
24788;BME280;12883;52.662;5.196;2023-11-21T03:28:20;99428.78;;;10.24;100.00
24788;BME280;12883;52.662;5.196;2023-11-21T03:30:45;99429.34;;;10.26;100.00
24788;BME280;12883;52.662;5.196;2023-11-21T03:33:10;99414.22;;;10.15;100.00
24788;BME280;12883;52.662;5.196;2023-11-21T03:35:36;99440.97;;;10.25;100.00
24788;BME280;12883;52.662;5.196;2023-11-21T03:38:01;99423.47;;;10.24;100.00
24788;BME280;12883;52.662;5.196;2023-11-21T03:40:27;99436.25;;;10.27;100.00
24788;BME280;12883;52.662;5.196;2023-11-21T03:42:52;99435.22;;;10.28;100.00
24788;BME280;12883;52.662;5.196;2023-11-21T03:45:17;99447.91;;;10.26;100.00
24788;BME280;12883;52.662;5.196;2023-11-21T03:47:44;99438.34;;;10.13;100.00
24788;BME280;12883;52.662;5.196;2023-11-21T03:50:09;99438.91;;;10.27;100.00
24788;BME280;12883;52.662;5.196;2023-11-21T03:52:35;99437.28;;;10.14;100.00
24788;BME280;12883;52.662;5.196;2023-11-21T03:55:01;99448.25;;;10.29;100.00
24788;BME280;12883;52.662;5.196;2023-11-21T03:57:27;99455.50;;;10.34;100.00
24788;BME280;12883;52.662;5.196;2023-11-21T03:59:53;99459.53;;;10.36;100.00
24788;BME280;12883;52.662;5.196;2023-11-21T04:02:18;99465.19;;;10.40;100.00
24788;BME280;12883;52.662;5.196;2023-11-21T04:04:44;99452.50;;;10.42;100.00
24788;BME280;12883;52.662;5.196;2023-11-21T04:07:09;99461.13;;;10.49;100.00
24788;BME280;12883;52.662;5.196;2023-11-21T04:09:34;99469.91;;;10.49;100.00
24788;BME280;12883;52.662;5.196;2023-11-21T04:12:01;99468.06;;;10.50;100.00
24788;BME280;12883;52.662;5.196;2023-11-21T04:14:27;99470.47;;;10.51;100.00
24788;BME280;12883;52.662;5.196;2023-11-21T04:16:52;99478.00;;;10.54;100.00
24788;BME280;12883;52.662;5.196;2023-11-21T04:19:18;99477.16;;;10.54;100.00
24788;BME280;12883;52.662;5.196;2023-11-21T04:21:44;99479.94;;;10.59;100.00
24788;BME280;12883;52.662;5.196;2023-11-21T04:24:10;99480.72;;;10.59;100.00
24788;BME280;12883;52.662;5.196;2023-11-21T04:26:35;99495.84;;;10.59;100.00
24788;BME280;12883;52.662;5.196;2023-11-21T04:29:01;99489.28;;;10.61;100.00
24788;BME280;12883;52.662;5.196;2023-11-21T04:31:26;99487.91;;;10.59;100.00
24788;BME280;12883;52.662;5.196;2023-11-21T04:33:51;99487.66;;;10.60;100.00
24788;BME280;12883;52.662;5.196;2023-11-21T04:36:17;99501.50;;;10.62;100.00
24788;BME280;12883;52.662;5.196;2023-11-21T04:38:42;99506.00;;;10.62;100.00
24788;BME280;12883;52.662;5.196;2023-11-21T04:41:08;99509.81;;;10.66;100.00
24788;BME280;12883;52.662;5.196;2023-11-21T04:43:33;99511.19;;;10.68;100.00
24788;BME280;12883;52.662;5.196;2023-11-21T04:45:58;99516.84;;;10.72;100.00
24788;BME280;12883;52.662;5.196;2023-11-21T04:48:24;99510.25;;;10.74;100.00
24788;BME280;12883;52.662;5.196;2023-11-21T04:50:50;99508.88;;;10.72;100.00
24788;BME280;12883;52.662;5.196;2023-11-21T04:53:16;99517.53;;;10.79;100.00
24788;BME280;12883;52.662;5.196;2023-11-21T04:55:41;99519.16;;;10.80;100.00
24788;BME280;12883;52.662;5.196;2023-11-21T04:58:07;99515.44;;;10.81;100.00
24788;BME280;12883;52.662;5.196;2023-11-21T05:00:33;99523.19;;;10.82;100.00
24788;BME280;12883;52.662;5.196;2023-11-21T05:02:59;99517.41;;;10.85;100.00
24788;BME280;12883;52.662;5.196;2023-11-21T05:05:26;99527.19;;;10.85;100.00
24788;BME280;12883;52.662;5.196;2023-11-21T05:07:51;99532.50;;;10.85;100.00
24788;BME280;12883;52.662;5.196;2023-11-21T05:10:18;99525.72;;;10.89;100.00
24788;BME280;12883;52.662;5.196;2023-11-21T05:12:44;99534.50;;;10.89;100.00
24788;BME280;12883;52.662;5.196;2023-11-21T05:15:13;99538.75;;;10.90;100.00
24788;BME280;12883;52.662;5.196;2023-11-21T05:17:40;99529.53;;;10.93;100.00
24788;BME280;12883;52.662;5.196;2023-11-21T05:20:15;99533.19;;;10.92;100.00
24788;BME280;12883;52.662;5.196;2023-11-21T05:22:46;99536.44;;;10.94;100.00
24788;BME280;12883;52.662;5.196;2023-11-21T05:25:11;99535.28;;;10.90;100.00
24788;BME280;12883;52.662;5.196;2023-11-21T05:27:37;99509.09;;;10.82;100.00
24788;BME280;12883;52.662;5.196;2023-11-21T05:30:03;99498.28;;;10.72;100.00
24788;BME280;12883;52.662;5.196;2023-11-21T05:32:30;99523.97;;;10.94;100.00
24788;BME280;12883;52.662;5.196;2023-11-21T05:34:56;99520.75;;;10.92;100.00
24788;BME280;12883;52.662;5.196;2023-11-21T05:37:21;99521.78;;;10.91;100.00
24788;BME280;12883;52.662;5.196;2023-11-21T05:39:48;99523.16;;;10.94;100.00
24788;BME280;12883;52.662;5.196;2023-11-21T05:42:13;99523.41;;;10.92;100.00
24788;BME280;12883;52.662;5.196;2023-11-21T05:44:41;99522.47;;;10.98;100.00
24788;BME280;12883;52.662;5.196;2023-11-21T05:47:06;99535.16;;;10.96;100.00
24788;BME280;12883;52.662;5.196;2023-11-21T05:49:32;99532.25;;;10.98;100.00
24788;BME280;12883;52.662;5.196;2023-11-21T05:51:58;99530.31;;;10.93;100.00
24788;BME280;12883;52.662;5.196;2023-11-21T05:54:23;99508.53;;;10.80;100.00
24788;BME280;12883;52.662;5.196;2023-11-21T05:56:49;99551.31;;;10.95;100.00
24788;BME280;12883;52.662;5.196;2023-11-21T05:59:14;99534.34;;;10.96;100.00
24788;BME280;12883;52.662;5.196;2023-11-21T06:01:40;99548.66;;;10.95;100.00
24788;BME280;12883;52.662;5.196;2023-11-21T06:04:05;99546.47;;;10.92;100.00
24788;BME280;12883;52.662;5.196;2023-11-21T06:06:33;99544.75;;;10.97;100.00
24788;BME280;12883;52.662;5.196;2023-11-21T06:08:58;99557.19;;;10.97;100.00
24788;BME280;12883;52.662;5.196;2023-11-21T06:11:23;99564.59;;;10.95;100.00
24788;BME280;12883;52.662;5.196;2023-11-21T06:13:49;99576.81;;;10.96;100.00
24788;BME280;12883;52.662;5.196;2023-11-21T06:16:15;99566.19;;;10.96;100.00
24788;BME280;12883;52.662;5.196;2023-11-21T06:18:42;99568.50;;;10.92;100.00
24788;BME280;12883;52.662;5.196;2023-11-21T06:21:12;99577.38;;;10.98;100.00
24788;BME280;12883;52.662;5.196;2023-11-21T06:23:38;99590.09;;;10.96;100.00
24788;BME280;12883;52.662;5.196;2023-11-21T06:26:05;99581.66;;;10.99;100.00
24788;BME280;12883;52.662;5.196;2023-11-21T06:28:31;99585.59;;;10.96;100.00
24788;BME280;12883;52.662;5.196;2023-11-21T06:30:56;99528.38;;;10.66;100.00
24788;BME280;12883;52.662;5.196;2023-11-21T06:33:30;99598.06;;;10.96;100.00
24788;BME280;12883;52.662;5.196;2023-11-21T06:35:56;99599.88;;;10.95;100.00
24788;BME280;12883;52.662;5.196;2023-11-21T06:38:21;99608.66;;;10.96;100.00
24788;BME280;12883;52.662;5.196;2023-11-21T06:40:46;99612.59;;;10.93;100.00
24788;BME280;12883;52.662;5.196;2023-11-21T06:43:12;99619.50;;;10.94;100.00
24788;BME280;12883;52.662;5.196;2023-11-21T06:45:39;99603.84;;;10.93;100.00
24788;BME280;12883;52.662;5.196;2023-11-21T06:48:04;99622.63;;;10.91;100.00
24788;BME280;12883;52.662;5.196;2023-11-21T06:50:30;99628.72;;;10.92;100.00
24788;BME280;12883;52.662;5.196;2023-11-21T06:52:56;99635.91;;;10.91;100.00
24788;BME280;12883;52.662;5.196;2023-11-21T06:55:21;99639.81;;;10.89;100.00
24788;BME280;12883;52.662;5.196;2023-11-21T06:57:46;99642.81;;;10.92;100.00
24788;BME280;12883;52.662;5.196;2023-11-21T07:00:13;99657.94;;;10.92;100.00
24788;BME280;12883;52.662;5.196;2023-11-21T07:02:40;99664.28;;;10.91;100.00
24788;BME280;12883;52.662;5.196;2023-11-21T07:05:06;99660.13;;;10.95;100.00
24788;BME280;12883;52.662;5.196;2023-11-21T07:07:31;99678.94;;;10.93;100.00
24788;BME280;12883;52.662;5.196;2023-11-21T07:09:57;99678.72;;;10.95;100.00
24788;BME280;12883;52.662;5.196;2023-11-21T07:12:22;99680.81;;;10.93;100.00
24788;BME280;12883;52.662;5.196;2023-11-21T07:14:51;99666.00;;;10.97;100.00
24788;BME280;12883;52.662;5.196;2023-11-21T07:17:16;99674.81;;;10.97;100.00
24788;BME280;12883;52.662;5.196;2023-11-21T07:19:42;99686.47;;;10.96;100.00
24788;BME280;12883;52.662;5.196;2023-11-21T07:22:07;99710.34;;;10.96;100.00
24788;BME280;12883;52.662;5.196;2023-11-21T07:24:33;99702.94;;;10.98;100.00
24788;BME280;12883;52.662;5.196;2023-11-21T07:26:59;99711.13;;;10.97;100.00
24788;BME280;12883;52.662;5.196;2023-11-21T07:29:24;99720.13;;;10.96;100.00
24788;BME280;12883;52.662;5.196;2023-11-21T07:31:54;99726.03;;;10.98;100.00
24788;BME280;12883;52.662;5.196;2023-11-21T07:34:20;99730.53;;;10.97;100.00
24788;BME280;12883;52.662;5.196;2023-11-21T07:36:46;99734.81;;;10.98;100.00
24788;BME280;12883;52.662;5.196;2023-11-21T07:39:12;99742.56;;;11.00;100.00
24788;BME280;12883;52.662;5.196;2023-11-21T07:41:37;99751.41;;;10.94;100.00
24788;BME280;12883;52.662;5.196;2023-11-21T07:44:04;99764.22;;;10.97;100.00
24788;BME280;12883;52.662;5.196;2023-11-21T07:46:30;99766.31;;;10.95;100.00
24788;BME280;12883;52.662;5.196;2023-11-21T07:48:55;99778.53;;;10.96;100.00
24788;BME280;12883;52.662;5.196;2023-11-21T07:51:20;99779.09;;;10.98;100.00
24788;BME280;12883;52.662;5.196;2023-11-21T07:53:46;99786.97;;;10.93;100.00
24788;BME280;12883;52.662;5.196;2023-11-21T07:56:11;99794.94;;;10.93;100.00
24788;BME280;12883;52.662;5.196;2023-11-21T07:58:38;99789.25;;;10.89;100.00
24788;BME280;12883;52.662;5.196;2023-11-21T08:01:04;99818.81;;;10.93;100.00
24788;BME280;12883;52.662;5.196;2023-11-21T08:03:30;99816.16;;;10.93;100.00
24788;BME280;12883;52.662;5.196;2023-11-21T08:05:59;99814.50;;;10.92;100.00
24788;BME280;12883;52.662;5.196;2023-11-21T08:08:25;99835.03;;;10.85;100.00
24788;BME280;12883;52.662;5.196;2023-11-21T08:10:50;99830.91;;;10.89;100.00
24788;BME280;12883;52.662;5.196;2023-11-21T08:13:26;99838.50;;;10.85;100.00
24788;BME280;12883;52.662;5.196;2023-11-21T08:15:55;99859.94;;;10.84;100.00
24788;BME280;12883;52.662;5.196;2023-11-21T08:18:21;99867.34;;;10.82;100.00
24788;BME280;12883;52.662;5.196;2023-11-21T08:20:47;99867.78;;;10.79;100.00
24788;BME280;12883;52.662;5.196;2023-11-21T08:23:16;99878.97;;;10.81;100.00
24788;BME280;12883;52.662;5.196;2023-11-21T08:25:44;99884.09;;;10.82;100.00
24788;BME280;12883;52.662;5.196;2023-11-21T08:28:10;99883.03;;;10.83;100.00
24788;BME280;12883;52.662;5.196;2023-11-21T08:30:35;99881.19;;;10.84;100.00
24788;BME280;12883;52.662;5.196;2023-11-21T08:33:01;99884.09;;;10.82;100.00
24788;BME280;12883;52.662;5.196;2023-11-21T08:35:28;99891.94;;;10.89;100.00
24788;BME280;12883;52.662;5.196;2023-11-21T08:37:53;99894.44;;;10.84;100.00
24788;BME280;12883;52.662;5.196;2023-11-21T08:40:20;99906.69;;;10.85;100.00
24788;BME280;12883;52.662;5.196;2023-11-21T08:42:47;99910.97;;;10.86;100.00
24788;BME280;12883;52.662;5.196;2023-11-21T08:45:13;99910.97;;;10.86;100.00
24788;BME280;12883;52.662;5.196;2023-11-21T08:47:39;99916.72;;;10.83;100.00
24788;BME280;12883;52.662;5.196;2023-11-21T08:50:08;99908.75;;;10.83;100.00
24788;BME280;12883;52.662;5.196;2023-11-21T08:52:34;99917.75;;;10.82;100.00
24788;BME280;12883;52.662;5.196;2023-11-21T08:54:59;99886.38;;;10.61;100.00
24788;BME280;12883;52.662;5.196;2023-11-21T08:57:28;99931.03;;;10.82;100.00
24788;BME280;12883;52.662;5.196;2023-11-21T08:59:53;99938.97;;;10.82;100.00
24788;BME280;12883;52.662;5.196;2023-11-21T09:02:21;99938.09;;;10.70;100.00
24788;BME280;12883;52.662;5.196;2023-11-21T09:04:48;99948.41;;;10.78;100.00
24788;BME280;12883;52.662;5.196;2023-11-21T09:07:13;99950.84;;;10.79;100.00
24788;BME280;12883;52.662;5.196;2023-11-21T09:09:39;99963.53;;;10.77;100.00
24788;BME280;12883;52.662;5.196;2023-11-21T09:12:04;99970.66;;;10.77;100.00
24788;BME280;12883;52.662;5.196;2023-11-21T09:14:30;99982.09;;;10.77;100.00
24788;BME280;12883;52.662;5.196;2023-11-21T09:16:55;99974.00;;;10.72;100.00
24788;BME280;12883;52.662;5.196;2023-11-21T09:19:21;99986.22;;;10.73;100.00
24788;BME280;12883;52.662;5.196;2023-11-21T09:21:46;100010.72;;;10.75;100.00
24788;BME280;12883;52.662;5.196;2023-11-21T09:24:12;100015.19;;;10.75;100.00
24788;BME280;12883;52.662;5.196;2023-11-21T09:26:37;100020.50;;;10.75;100.00
24788;BME280;12883;52.662;5.196;2023-11-21T09:29:03;100025.38;;;10.78;100.00
24788;BME280;12883;52.662;5.196;2023-11-21T09:31:28;100041.72;;;10.75;100.00
24788;BME280;12883;52.662;5.196;2023-11-21T09:33:53;100100.69;;;10.77;100.00
24788;BME280;12883;52.662;5.196;2023-11-21T09:36:19;100044.19;;;10.76;100.00
24788;BME280;12883;52.662;5.196;2023-11-21T09:38:46;100053.97;;;10.76;100.00
24788;BME280;12883;52.662;5.196;2023-11-21T09:41:21;100049.47;;;10.76;100.00
24788;BME280;12883;52.662;5.196;2023-11-21T09:43:52;100070.47;;;10.78;100.00
24788;BME280;12883;52.662;5.196;2023-11-21T09:46:21;100074.63;;;10.74;100.00
24788;BME280;12883;52.662;5.196;2023-11-21T09:48:50;100099.66;;;10.78;100.00
24788;BME280;12883;52.662;5.196;2023-11-21T09:51:19;100087.88;;;10.74;100.00
24788;BME280;12883;52.662;5.196;2023-11-21T09:53:46;100100.09;;;10.75;100.00
24788;BME280;12883;52.662;5.196;2023-11-21T09:56:14;100113.16;;;10.76;100.00
24788;BME280;12883;52.662;5.196;2023-11-21T09:58:44;100138.09;;;10.75;100.00
24788;BME280;12883;52.662;5.196;2023-11-21T10:01:10;100143.13;;;10.83;100.00
24788;BME280;12883;52.662;5.196;2023-11-21T10:03:36;100156.28;;;10.96;100.00
24788;BME280;12883;52.662;5.196;2023-11-21T10:06:04;100162.84;;;10.94;100.00
24788;BME280;12883;52.662;5.196;2023-11-21T10:08:31;100152.63;;;10.66;100.00
24788;BME280;12883;52.662;5.196;2023-11-21T10:10:57;100200.84;;;10.88;100.00
24788;BME280;12883;52.662;5.196;2023-11-21T10:13:24;100228.56;;;10.92;100.00
24788;BME280;12883;52.662;5.196;2023-11-21T10:15:52;100215.44;;;10.79;100.00
24788;BME280;12883;52.662;5.196;2023-11-21T10:18:18;100253.97;;;10.81;100.00
24788;BME280;12883;52.662;5.196;2023-11-21T10:20:44;100277.50;;;11.02;100.00
24788;BME280;12883;52.662;5.196;2023-11-21T10:23:18;100288.09;;;11.09;100.00
24788;BME280;12883;52.662;5.196;2023-11-21T10:25:44;100304.44;;;11.06;100.00
24788;BME280;12883;52.662;5.196;2023-11-21T10:28:09;100338.03;;;10.94;100.00
24788;BME280;12883;52.662;5.196;2023-11-21T10:30:37;100369.69;;;10.89;100.00
24788;BME280;12883;52.662;5.196;2023-11-21T10:33:04;100392.75;;;10.95;100.00
24788;BME280;12883;52.662;5.196;2023-11-21T10:35:48;100410.03;;;11.04;100.00
24788;BME280;12883;52.662;5.196;2023-11-21T10:38:19;100427.78;;;11.16;100.00
24788;BME280;12883;52.662;5.196;2023-11-21T10:40:46;100347.94;;;10.74;100.00
24788;BME280;12883;52.662;5.196;2023-11-21T10:43:13;100450.19;;;11.27;100.00
24788;BME280;12883;52.662;5.196;2023-11-21T10:45:40;100450.41;;;11.25;100.00
24788;BME280;12883;52.662;5.196;2023-11-21T10:48:08;100452.38;;;10.92;100.00
24788;BME280;12883;52.662;5.196;2023-11-21T10:50:35;100499.69;;;11.15;100.00
24788;BME280;12883;52.662;5.196;2023-11-21T10:53:02;100516.41;;;11.15;100.00
24788;BME280;12883;52.662;5.196;2023-11-21T10:55:29;100464.63;;;10.93;100.00
24788;BME280;12883;52.662;5.196;2023-11-21T10:57:58;100525.94;;;11.29;100.00
24788;BME280;12883;52.662;5.196;2023-11-21T11:00:24;100549.91;;;11.23;100.00
24788;BME280;12883;52.662;5.196;2023-11-21T11:02:53;100577.28;;;11.17;100.00
24788;BME280;12883;52.662;5.196;2023-11-21T11:05:23;100597.72;;;11.10;100.00
24788;BME280;12883;52.662;5.196;2023-11-21T11:07:51;100619.41;;;11.07;100.00
24788;BME280;12883;52.662;5.196;2023-11-21T11:10:23;100630.81;;;11.07;100.00
24788;BME280;12883;52.662;5.196;2023-11-21T11:12:51;100606.53;;;10.91;100.00
24788;BME280;12883;52.662;5.196;2023-11-21T11:15:19;100632.84;;;11.18;100.00
24788;BME280;12883;52.662;5.196;2023-11-21T11:17:45;100633.09;;;10.91;100.00
24788;BME280;12883;52.662;5.196;2023-11-21T11:20:14;100668.00;;;11.01;100.00
24788;BME280;12883;52.662;5.196;2023-11-21T11:28:22;100711.28;;;10.88;100.00
24788;BME280;12883;52.662;5.196;2023-11-21T11:33:42;100737.63;;;10.90;100.00
24788;BME280;12883;52.662;5.196;2023-11-21T11:38:52;100743.56;;;10.92;100.00
24788;BME280;12883;52.662;5.196;2023-11-21T11:41:26;100750.50;;;10.99;100.00
24788;BME280;12883;52.662;5.196;2023-11-21T11:43:53;100764.00;;;10.91;100.00
24788;BME280;12883;52.662;5.196;2023-11-21T11:46:18;100774.19;;;10.88;100.00
24788;BME280;12883;52.662;5.196;2023-11-21T11:48:48;100793.00;;;10.93;100.00
24788;BME280;12883;52.662;5.196;2023-11-21T11:51:14;100800.34;;;10.97;100.00
24788;BME280;12883;52.662;5.196;2023-11-21T11:53:46;100784.38;;;10.78;100.00
24788;BME280;12883;52.662;5.196;2023-11-21T11:58:51;100851.59;;;10.98;100.00
24788;BME280;12883;52.662;5.196;2023-11-21T12:01:20;100865.66;;;10.92;100.00
24788;BME280;12883;52.662;5.196;2023-11-21T12:06:45;100893.47;;;10.96;100.00
24788;BME280;12883;52.662;5.196;2023-11-21T12:09:21;100893.66;;;10.94;100.00
24788;BME280;12883;52.662;5.196;2023-11-21T12:11:48;100904.88;;;10.90;100.00
24788;BME280;12883;52.662;5.196;2023-11-21T12:14:14;100909.78;;;10.86;100.00
24788;BME280;12883;52.662;5.196;2023-11-21T12:16:40;100926.91;;;10.84;100.00
24788;BME280;12883;52.662;5.196;2023-11-21T12:19:05;100935.03;;;10.76;100.00
24788;BME280;12883;52.662;5.196;2023-11-21T12:21:31;100942.81;;;10.77;100.00
24788;BME280;12883;52.662;5.196;2023-11-21T12:23:58;100955.72;;;10.87;100.00
24788;BME280;12883;52.662;5.196;2023-11-21T12:26:24;100945.13;;;10.87;100.00
24788;BME280;12883;52.662;5.196;2023-11-21T12:28:53;100952.66;;;10.83;100.00
24788;BME280;12883;52.662;5.196;2023-11-21T12:31:24;100952.25;;;10.86;100.00
24788;BME280;12883;52.662;5.196;2023-11-21T12:33:50;100978.78;;;10.80;100.00
24788;BME280;12883;52.662;5.196;2023-11-21T12:36:16;100997.56;;;10.85;100.00
24788;BME280;12883;52.662;5.196;2023-11-21T12:38:41;101005.25;;;10.73;100.00
24788;BME280;12883;52.662;5.196;2023-11-21T12:41:07;100989.75;;;10.70;100.00
24788;BME280;12883;52.662;5.196;2023-11-21T12:43:33;101041.06;;;10.84;100.00
24788;BME280;12883;52.662;5.196;2023-11-21T12:46:12;101053.31;;;10.85;100.00
24788;BME280;12883;52.662;5.196;2023-11-21T12:48:41;101057.63;;;10.86;100.00
24788;BME280;12883;52.662;5.196;2023-11-21T12:51:11;101069.44;;;10.83;100.00
24788;BME280;12883;52.662;5.196;2023-11-21T12:53:38;101055.03;;;10.65;100.00
24788;BME280;12883;52.662;5.196;2023-11-21T12:56:10;101061.66;;;10.82;100.00
24788;BME280;12883;52.662;5.196;2023-11-21T12:58:37;101060.41;;;10.78;100.00
24788;BME280;12883;52.662;5.196;2023-11-21T13:01:05;101076.72;;;10.75;100.00